Time;durP1;ratioP1;P1;durP2;ratioP2;P2;SDS_P1;SDS_P2;PMS_P1;PMS_P2;Temp;Humidity;BMP_temperature;BMP_pressure;BME280_temperature;BME280_humidity;BME280_pressure;Samples;Min_cycle;Max_cycle;Signal;HPM_P1;HPM_P2
2022/09/14 00:02:12;;;;;;;2.38;2.00;;;;;;;19.91;39.11;99348.47;5053209;28;20044;-77
2022/09/14 00:04:39;;;;;;;4.55;1.73;;;;;;;19.87;39.01;99349.19;5053068;28;20025;-77
2022/09/14 00:07:04;;;;;;;2.05;1.58;;;;;;;19.87;39.11;99366.06;5051801;28;20032;-77
2022/09/14 00:09:30;;;;;;;3.25;1.58;;;;;;;19.44;39.27;99298.88;5052893;28;20025;-77
2022/09/14 00:11:55;;;;;;;1.98;1.58;;;;;;;19.78;39.29;99367.53;5052915;28;20020;-77
2022/09/14 00:14:21;;;;;;;1.73;1.63;;;;;;;20.06;39.38;99412.22;5053196;28;20098;-76
2022/09/14 00:16:47;;;;;;;2.45;1.73;;;;;;;19.50;39.24;99322.81;5053133;28;20513;-77
2022/09/14 00:19:21;;;;;;;1.50;1.40;;;;;;;19.91;39.27;99396.69;5053072;28;20048;-77
2022/09/14 00:21:56;;;;;;;1.83;1.73;;;;;;;19.76;39.29;99368.81;5052950;28;20032;-76
2022/09/14 00:24:23;;;;;;;2.10;1.60;;;;;;;20.03;39.23;99410.00;5053138;28;20029;-77
2022/09/14 00:26:49;;;;;;;1.98;1.77;;;;;;;19.97;39.19;99400.28;5052854;28;20033;-77
2022/09/14 00:29:15;;;;;;;1.55;1.45;;;;;;;19.48;38.92;99322.25;5052852;28;20029;-77
2022/09/14 00:31:41;;;;;;;1.85;1.60;;;;;;;19.99;38.80;99390.94;5052676;28;20025;-77
2022/09/14 00:34:11;;;;;;;1.73;1.30;;;;;;;20.04;38.97;99400.09;5051742;28;20032;-77
2022/09/14 00:36:40;;;;;;;1.80;1.70;;;;;;;19.81;38.85;99387.66;5052696;28;20478;-76
2022/09/14 00:39:06;;;;;;;3.25;1.67;;;;;;;19.41;39.07;99320.78;5053149;28;20021;-77
2022/09/14 00:41:35;;;;;;;1.70;1.60;;;;;;;19.98;39.14;99418.78;5052735;28;20041;-77
2022/09/14 00:44:05;;;;;;;1.95;1.60;;;;;;;19.93;39.10;99420.56;5052353;28;20024;-77
2022/09/14 00:46:35;;;;;;;1.90;1.70;;;;;;;19.38;39.17;99348.03;5052510;28;20482;-77
2022/09/14 00:49:02;;;;;;;2.63;1.77;;;;;;;19.78;39.29;99423.78;5052427;28;20027;-77
2022/09/14 00:51:31;;;;;;;2.05;1.85;;;;;;;19.70;39.36;99420.69;5052439;28;20025;-77
2022/09/14 00:53:59;;;;;;;1.75;1.65;;;;;;;19.13;39.61;99357.19;5051061;28;20044;-77
2022/09/14 00:56:25;;;;;;;1.88;1.77;;;;;;;19.52;39.77;99425.19;5052349;28;20021;-77
2022/09/14 00:58:52;;;;;;;1.70;1.50;;;;;;;19.13;39.68;99361.72;5052324;28;20025;-77
2022/09/14 01:01:18;;;;;;;2.08;1.50;;;;;;;19.30;39.80;99402.75;5052283;28;20456;-77
2022/09/14 01:03:44;;;;;;;2.15;1.50;;;;;;;19.43;39.77;99428.47;5052323;28;20081;-77
2022/09/14 01:06:46;;;;;;;1.70;1.60;;;;;;;19.39;40.05;99425.44;5052147;28;20072;-76
2022/09/14 01:09:22;;;;;;;3.95;1.52;;;;;;;18.90;40.05;99368.78;5051906;28;20100;-77
2022/09/14 01:11:57;;;;;;;3.05;1.92;;;;;;;18.83;40.31;99370.75;5051804;28;20043;-77
2022/09/14 01:14:30;;;;;;;1.50;1.40;;;;;;;19.13;40.42;99428.63;5050588;28;20060;-77
2022/09/14 01:16:59;;;;;;;2.22;1.80;;;;;;;19.07;40.57;99425.03;5051913;28;20084;-77
2022/09/14 01:19:40;;;;;;;2.42;1.73;;;;;;;18.58;40.56;99352.28;5050696;28;20025;-77
2022/09/14 01:22:19;;;;;;;2.33;1.70;;;;;;;18.85;40.68;99392.75;5051926;28;20023;-77
2022/09/14 01:24:54;;;;;;;3.85;1.77;;;;;;;18.64;40.59;99359.41;5050452;28;20083;-77
2022/09/14 01:27:40;;;;;;;3.38;2.00;;;;;;;18.95;40.91;99414.34;5051789;28;20485;-76
2022/09/14 01:30:06;;;;;;;1.73;1.63;;;;;;;18.92;40.75;99411.34;5052352;28;20516;-77
2022/09/14 01:32:37;;;;;;;2.05;1.90;;;;;;;18.89;40.88;99417.97;5051432;28;20029;-77
2022/09/14 01:35:06;;;;;;;;;;;;;;;18.65;41.30;99427.88;5050905;28;20067;-77
2022/09/14 01:37:46;;;;;;;2.22;1.85;;;;;;;18.71;40.98;99429.63;5051639;28;19908;-77
2022/09/14 01:40:29;;;;;;;2.17;1.70;;;;;;;18.35;41.39;99382.50;5051165;28;20128;-77
2022/09/14 01:43:00;;;;;;;1.80;1.70;;;;;;;18.18;41.09;99333.47;5051578;28;20017;-77
2022/09/14 01:45:28;;;;;;;2.05;1.88;;;;;;;18.71;41.00;99432.31;5051744;28;20051;-77
2022/09/14 01:47:59;;;;;;;5.60;2.22;;;;;;;18.36;41.05;99375.28;5051588;28;20025;-77
2022/09/14 01:50:32;;;;;;;2.10;1.90;;;;;;;18.40;41.25;99365.75;5051820;28;20021;-77
2022/09/14 01:53:10;;;;;;;2.10;1.80;;;;;;;18.63;41.25;99421.97;5051504;28;20412;-77
2022/09/14 01:55:44;;;;;;;4.35;2.00;;;;;;;18.26;41.37;99345.66;5050110;28;20039;-77
2022/09/14 01:58:17;;;;;;;3.25;2.00;;;;;;;18.49;41.07;99393.75;5050248;28;20078;-77
2022/09/14 02:00:45;;;;;;;2.95;1.92;;;;;;;18.78;41.10;99432.19;5051521;28;20049;-77
2022/09/14 02:03:20;;;;;;;1.98;1.80;;;;;;;18.82;41.06;99432.53;5051373;28;20021;-77
2022/09/14 02:06:07;;;;;;;4.00;2.20;;;;;;;18.37;41.08;99367.03;5051236;28;20025;-77
2022/09/14 02:08:33;;;;;;;5.00;1.98;;;;;;;18.45;40.93;99375.75;5050120;28;20048;-77
2022/09/14 02:10:59;;;;;;;2.70;1.90;;;;;;;18.45;41.20;99370.41;5051153;28;20486;-77
2022/09/14 02:13:25;;;;;;;3.70;1.80;;;;;;;18.76;41.25;99425.44;5051321;28;20052;-77
2022/09/14 02:15:51;;;;;;;3.88;2.10;;;;;;;18.75;41.29;99429.16;5051485;28;20038;-77
2022/09/14 02:18:18;;;;;;;3.33;2.13;;;;;;;18.70;41.28;99428.00;5051435;28;20039;-77
2022/09/14 02:20:59;;;;;;;2.25;2.05;;;;;;;18.65;41.35;99433.22;5051546;28;20021;-77
2022/09/14 02:23:24;;;;;;;5.07;2.28;;;;;;;18.50;41.25;99402.59;5050158;28;20033;-77
2022/09/14 02:25:50;;;;;;;2.22;2.00;;;;;;;18.12;41.38;99331.72;5050052;28;20086;-77
2022/09/14 02:28:16;;;;;;;3.70;2.25;;;;;;;18.68;41.49;99427.41;5051330;28;20170;-77
2022/09/14 02:31:07;;;;;;;5.57;2.10;;;;;;;18.08;41.88;99326.03;5051120;28;20025;-77
2022/09/14 02:33:53;;;;;;;2.42;2.20;;;;;;;18.48;41.54;99399.34;5050035;28;20033;-77
2022/09/14 02:36:27;;;;;;;2.83;2.55;;;;;;;18.42;41.64;99393.06;5049724;28;20028;-77
2022/09/14 02:39:42;;;;;;;3.80;2.28;;;;;;;18.62;41.64;99424.88;5050093;28;20056;-77
2022/09/14 02:42:18;;;;;;;3.20;2.60;;;;;;;18.58;41.49;99429.84;5040943;28;20041;-77
2022/09/14 02:44:53;;;;;;;3.25;2.50;;;;;;;18.57;41.75;99435.38;5049678;28;20028;-77
2022/09/14 02:47:33;;;;;;;2.85;2.20;;;;;;;18.50;41.90;99424.00;5051049;28;20076;-77
2022/09/14 02:50:16;;;;;;;2.85;2.55;;;;;;;18.46;42.02;99433.53;5050966;28;20032;-77
2022/09/14 02:52:56;;;;;;;2.85;2.15;;;;;;;18.30;41.75;99405.63;5053442;28;20021;-76
2022/09/14 02:55:24;;;;;;;3.95;2.28;;;;;;;18.44;41.86;99439.09;5054618;28;20098;-77
2022/09/14 02:58:01;;;;;;;7.13;2.47;;;;;;;18.43;42.05;99434.78;5054579;28;20021;-77
2022/09/14 03:00:28;;;;;;;4.38;2.70;;;;;;;18.45;41.93;99431.88;5054283;28;20031;-77
2022/09/14 03:02:54;;;;;;;3.22;2.13;;;;;;;18.41;41.97;99424.34;5053250;28;20028;-77
2022/09/14 03:05:19;;;;;;;3.08;2.20;;;;;;;18.10;41.75;99390.72;5053114;28;20459;-77
2022/09/14 03:07:45;;;;;;;3.38;2.47;;;;;;;18.31;41.91;99409.91;5054380;28;20055;-77
2022/09/14 03:10:10;;;;;;;4.60;2.30;;;;;;;18.46;41.82;99445.03;5054229;28;20105;-77
2022/09/14 03:12:37;;;;;;;3.03;2.10;;;;;;;18.37;41.82;99436.53;5054303;28;20052;-77
2022/09/14 03:15:02;;;;;;;2.60;2.40;;;;;;;17.99;41.73;99369.34;5054196;28;20021;-76
2022/09/14 03:17:28;;;;;;;3.05;2.50;;;;;;;18.05;41.65;99381.78;5054434;28;20028;-77
2022/09/14 03:19:53;;;;;;;2.88;2.65;;;;;;;18.48;41.65;99444.78;5052906;28;20531;-77
2022/09/14 03:22:19;;;;;;;3.35;2.72;;;;;;;18.18;41.73;99405.59;5054192;28;20017;-77
2022/09/14 03:24:44;;;;;;;3.72;2.40;;;;;;;18.46;41.53;99444.22;5052681;28;20535;-77
2022/09/14 03:27:09;;;;;;;4.43;2.50;;;;;;;18.41;41.87;99451.06;5053948;28;20104;-76
2022/09/14 03:29:35;;;;;;;5.00;2.72;;;;;;;17.99;41.88;99407.56;5054028;28;20017;-77
2022/09/14 03:32:00;;;;;;;2.85;2.50;;;;;;;18.31;41.82;99432.13;5053814;28;20065;-76
2022/09/14 03:34:25;;;;;;;3.60;2.25;;;;;;;17.88;41.94;99373.63;5054270;28;20508;-77
2022/09/14 03:36:51;;;;;;;5.05;2.80;;;;;;;17.71;41.87;99376.09;5053829;28;20029;-77
2022/09/14 03:39:16;;;;;;;5.70;2.40;;;;;;;18.26;42.00;99482.78;5053823;28;20481;-77
2022/09/14 03:41:42;;;;;;;2.90;2.70;;;;;;;18.00;41.99;99435.91;5053712;28;20037;-77
2022/09/14 03:44:09;;;;;;;4.68;2.80;;;;;;;17.63;42.20;99376.41;5053748;28;20485;-77
2022/09/14 03:46:34;;;;;;;3.42;2.83;;;;;;;18.17;41.90;99456.59;5053767;28;20087;-77
2022/09/14 03:48:59;;;;;;;4.70;2.88;;;;;;;17.60;42.04;99384.88;5052347;28;20032;-77
2022/09/14 03:51:25;;;;;;;8.02;2.85;;;;;;;17.43;41.89;99344.66;5053909;28;20028;-77
2022/09/14 03:53:51;;;;;;;3.10;2.80;;;;;;;18.05;41.98;99454.72;5053750;28;20478;-77
2022/09/14 03:56:19;;;;;;;3.08;2.85;;;;;;;18.02;42.04;99433.00;5052323;28;20025;-76
2022/09/14 03:58:46;;;;;;;5.45;3.38;;;;;;;18.10;42.12;99454.84;5053405;28;20103;-76
2022/09/14 04:01:15;;;;;;;5.90;3.03;;;;;;;18.05;41.87;99464.59;5052819;28;20028;-76
2022/09/14 04:03:41;;;;;;;4.22;3.10;;;;;;;17.98;42.01;99458.53;5051706;28;20486;-77
2022/09/14 04:06:07;;;;;;;5.05;3.10;;;;;;;17.53;42.01;99402.03;5053415;28;20020;-76
2022/09/14 04:08:38;;;;;;;6.25;3.58;;;;;;;17.70;42.55;99456.44;5053934;28;20021;-77
2022/09/14 04:11:08;;;;;;;4.80;3.70;;;;;;;17.28;42.43;99404.81;5053366;28;20031;-76
2022/09/14 04:13:34;;;;;;;4.77;3.20;;;;;;;17.17;42.29;99374.38;5053137;28;20074;-76
2022/09/14 04:16:00;;;;;;;4.68;3.80;;;;;;;17.72;42.37;99447.16;5051902;28;20753;-76
2022/09/14 04:18:26;;;;;;;6.30;3.00;;;;;;;17.79;42.57;99455.91;5053125;28;20024;-77
2022/09/14 04:21:03;;;;;;;8.02;3.40;;;;;;;17.47;42.40;99399.22;5053243;28;20409;-77
2022/09/14 04:23:29;;;;;;;4.20;3.80;;;;;;;17.64;42.52;99462.66;5053193;28;20024;-77
2022/09/14 04:25:55;;;;;;;4.18;3.15;;;;;;;17.56;42.71;99423.75;5053013;28;20029;-76
2022/09/14 04:28:21;;;;;;;9.68;7.25;;;;;;;17.29;42.55;99371.75;5053051;28;20151;-77
2022/09/14 04:30:55;;;;;;;8.43;4.90;;;;;;;17.83;42.61;99460.78;5052789;28;20025;-77
2022/09/14 04:33:21;;;;;;;6.03;4.10;;;;;;;17.32;42.61;99390.78;5053422;28;20037;-78
2022/09/14 04:35:55;;;;;;;7.70;3.83;;;;;;;17.59;42.81;99441.97;5052982;28;20085;-77
2022/09/14 04:38:21;;;;;;;8.20;4.32;;;;;;;17.77;42.63;99474.00;5051219;28;20029;-77
2022/09/14 04:40:47;;;;;;;5.43;3.90;;;;;;;17.48;42.65;99437.41;5052433;28;20049;-77
2022/09/14 04:43:12;;;;;;;5.22;4.32;;;;;;;17.57;43.12;99477.94;5051267;28;20030;-76
2022/09/14 04:45:37;;;;;;;6.20;4.20;;;;;;;17.26;43.30;99433.56;5051132;28;20021;-76
2022/09/14 04:48:04;;;;;;;6.88;4.05;;;;;;;16.92;42.79;99369.09;5052474;28;20025;-76
2022/09/14 04:50:31;;;;;;;7.00;5.55;;;;;;;17.15;43.21;99411.94;5052254;28;20112;-77
2022/09/14 04:52:57;;;;;;;7.22;4.80;;;;;;;17.42;43.42;99427.63;5052494;28;20454;-77
2022/09/14 04:55:23;;;;;;;8.88;5.18;;;;;;;17.73;43.28;99472.81;5052397;28;20044;-76
2022/09/14 04:57:49;;;;;;;8.80;5.80;;;;;;;17.15;43.35;99371.13;5051052;28;20029;-77
2022/09/14 05:00:15;;;;;;;12.18;7.90;;;;;;;17.64;43.19;99434.09;5050920;28;20131;-77
2022/09/14 05:02:41;;;;;;;11.65;7.82;;;;;;;17.86;43.25;99474.53;5052256;28;20505;-77
2022/09/14 05:05:07;;;;;;;9.07;7.10;;;;;;;17.68;43.76;99439.84;5052079;28;20108;-77
2022/09/14 05:07:32;;;;;;;9.40;6.32;;;;;;;17.45;43.74;99411.16;5051286;28;20513;-76
2022/09/14 05:09:58;;;;;;;12.55;7.80;;;;;;;17.68;43.68;99427.28;5051395;28;20531;-77
2022/09/14 05:12:23;;;;;;;11.18;8.13;;;;;;;17.71;43.63;99442.88;5050415;28;20056;-77
2022/09/14 05:14:48;;;;;;;12.40;8.02;;;;;;;17.99;43.32;99471.66;5051350;28;20029;-76
2022/09/14 05:17:14;;;;;;;12.13;7.90;;;;;;;17.72;43.43;99428.47;5051728;28;20078;-76
2022/09/14 05:19:39;;;;;;;8.80;7.57;;;;;;;17.86;43.51;99428.31;5050771;28;20385;-76
2022/09/14 05:22:04;;;;;;;11.65;8.88;;;;;;;17.83;43.33;99426.88;5050642;28;20071;-76
2022/09/14 05:24:30;;;;;;;12.38;9.75;;;;;;;18.25;43.21;99465.09;5051231;28;20060;-77
2022/09/14 05:26:56;;;;;;;12.60;9.43;;;;;;;17.86;43.29;99404.28;5051471;28;20482;-77
2022/09/14 05:29:21;;;;;;;10.20;7.15;;;;;;;18.24;43.14;99451.97;5051048;28;20028;-77
2022/09/14 05:31:47;;;;;;;10.30;8.90;;;;;;;18.28;43.03;99453.13;5050980;28;20482;-76
2022/09/14 05:34:12;;;;;;;9.18;7.38;;;;;;;18.21;42.82;99423.84;5051069;28;20040;-77
2022/09/14 05:36:39;;;;;;;12.00;7.72;;;;;;;18.31;42.99;99437.47;5044354;28;20032;-77
2022/09/14 05:39:05;;;;;;;8.15;7.35;;;;;;;18.64;42.71;99479.75;5044370;28;20532;-77
2022/09/14 05:41:31;;;;;;;9.73;8.68;;;;;;;18.56;42.79;99472.00;5051186;28;20138;-77
2022/09/14 05:43:58;;;;;;;8.60;7.70;;;;;;;18.73;42.87;99491.72;5050849;28;20057;-76
2022/09/14 05:46:24;;;;;;;10.38;7.25;;;;;;;18.56;42.55;99437.25;5049834;28;20039;-76
2022/09/14 05:48:50;;;;;;;8.13;6.60;;;;;;;18.15;42.60;99359.84;5044224;28;20108;-77
2022/09/14 05:51:23;;;;;;;9.30;6.50;;;;;;;18.63;42.73;99429.16;5031333;28;20025;-77
2022/09/14 05:53:51;;;;;;;8.60;6.30;;;;;;;19.10;42.42;99486.13;5031446;28;20053;-76
2022/09/14 05:56:17;;;;;;;12.13;6.75;;;;;;;19.11;42.46;99471.69;5031510;28;20101;-77
2022/09/14 05:58:43;;;;;;;11.27;6.82;;;;;;;19.29;42.53;99490.28;5045673;28;20033;-77
2022/09/14 06:01:20;;;;;;;10.85;6.97;;;;;;;19.02;42.39;99428.41;5050583;28;20039;-77
2022/09/14 06:03:47;;;;;;;10.95;6.97;;;;;;;19.01;42.27;99412.59;5049215;28;20040;-76
2022/09/14 06:06:16;;;;;;;11.60;7.03;;;;;;;18.80;42.14;99368.56;5048309;28;20536;-77
2022/09/14 06:08:42;;;;;;;9.25;7.25;;;;;;;19.22;42.16;99436.06;5048269;28;20036;-76
2022/09/14 06:11:15;;;;;;;7.88;5.93;;;;;;;19.36;42.00;99450.00;5049993;28;20036;-76
2022/09/14 06:13:42;;;;;;;9.23;6.60;;;;;;;19.75;42.26;99499.28;5049145;28;20120;-76
2022/09/14 06:16:10;;;;;;;8.13;6.20;;;;;;;19.63;42.34;99461.00;5048047;28;20035;-77
2022/09/14 06:18:37;;;;;;;7.47;5.78;;;;;;;19.63;41.89;99451.13;5032170;28;20575;-76
2022/09/14 06:21:03;;;;;;;8.20;5.82;;;;;;;19.58;41.82;99428.78;5048993;28;20025;-76
2022/09/14 06:23:29;;;;;;;10.82;6.40;;;;;;;19.20;41.97;99363.22;5049242;28;20086;-74
2022/09/14 06:25:56;;;;;;;13.40;5.95;;;;;;;19.76;41.67;99454.56;5051181;28;20035;-76
2022/09/14 06:28:22;;;;;;;12.95;5.70;;;;;;;19.85;41.75;99455.78;5053185;28;20025;-76
2022/09/14 06:30:48;;;;;;;8.23;5.22;;;;;;;20.00;41.74;99464.09;5053142;28;20025;-76
2022/09/14 06:33:14;;;;;;;8.30;6.50;;;;;;;20.19;41.56;99489.66;5051944;28;20441;-74
2022/09/14 06:35:41;;;;;;;9.30;7.22;;;;;;;19.80;41.35;99419.00;5052564;28;20033;-75
2022/09/14 06:38:06;;;;;;;7.32;6.13;;;;;;;20.33;40.99;99482.13;5053853;28;20078;-75
2022/09/14 06:40:32;;;;;;;8.13;4.93;;;;;;;20.29;40.91;99475.63;5049393;28;20048;-75
2022/09/14 06:43:01;;;;;;;6.97;4.68;;;;;;;20.33;40.60;99465.22;5050026;28;20024;-75
2022/09/14 06:45:31;;;;;;;5.10;4.25;;;;;;;20.53;40.42;99487.84;5053602;28;20025;-75
2022/09/14 06:47:57;;;;;;;9.50;8.02;;;;;;;20.72;40.14;99514.41;5050203;28;20029;-76
2022/09/14 06:50:24;;;;;;;7.95;7.07;;;;;;;20.78;39.91;99495.47;5051646;28;20056;-76
2022/09/14 06:52:49;;;;;;;5.32;4.65;;;;;;;20.74;39.69;99477.44;5048698;28;20029;-76
2022/09/14 06:55:15;;;;;;;4.32;3.17;;;;;;;21.07;39.35;99525.72;5051414;28;20045;-76
2022/09/14 06:57:40;;;;;;;6.22;3.28;;;;;;;20.51;39.19;99406.81;5051627;28;20087;-76
2022/09/14 07:00:06;;;;;;;5.40;2.55;;;;;;;20.66;39.13;99416.13;5053211;28;20559;-76
2022/09/14 07:02:31;;;;;;;4.93;3.05;;;;;;;21.32;38.61;99511.03;5051190;28;20021;-75
2022/09/14 07:04:57;;;;;;;3.35;2.78;;;;;;;21.33;38.94;99497.34;5049022;28;20090;-76
2022/09/14 07:07:22;;;;;;;2.88;2.67;;;;;;;21.17;38.62;99472.16;5053382;28;20024;-76
2022/09/14 07:09:48;;;;;;;3.92;3.55;;;;;;;20.02;38.69;99274.38;5053940;28;20025;-76
2022/09/14 07:12:13;;;;;;;11.15;10.10;;;;;;;21.22;38.26;99448.09;5053005;28;20482;-76
2022/09/14 07:14:39;;;;;;;3.95;3.65;;;;;;;21.24;37.97;99472.00;5053742;28;20029;-76
2022/09/14 07:17:05;;;;;;;4.95;4.25;;;;;;;21.59;37.61;99484.25;5054180;28;20020;-76
2022/09/14 07:19:30;;;;;;;3.92;3.05;;;;;;;21.77;37.46;99486.63;5052004;28;20516;-77
2022/09/14 07:21:56;;;;;;;4.85;3.35;;;;;;;22.00;37.43;99525.84;5051842;28;20036;-77
2022/09/14 07:24:21;;;;;;;5.10;3.00;;;;;;;21.44;37.17;99429.28;5053308;28;20468;-77
2022/09/14 07:26:47;;;;;;;7.25;3.30;;;;;;;21.94;37.17;99516.09;5052401;28;20036;-77
2022/09/14 07:29:16;;;;;;;5.70;3.35;;;;;;;21.50;36.76;99412.16;5053158;28;20021;-76
2022/09/14 07:31:45;;;;;;;3.08;2.60;;;;;;;21.79;36.31;99446.88;5058911;28;20027;-76
2022/09/14 07:34:11;;;;;;;9.25;8.13;;;;;;;22.28;36.46;99528.31;5060915;28;20033;-76
2022/09/14 07:36:37;;;;;;;7.40;6.45;;;;;;;22.38;36.29;99523.03;5052985;28;20065;-76
2022/09/14 07:39:05;;;;;;;6.07;5.30;;;;;;;22.03;36.09;99437.44;5052552;28;20516;-76
2022/09/14 07:41:32;;;;;;;4.00;3.10;;;;;;;22.14;35.81;99449.91;5053050;28;20124;-75
2022/09/14 07:43:59;;;;;;;4.30;3.90;;;;;;;22.44;35.65;99478.16;5051881;28;20417;-75
2022/09/14 07:46:27;;;;;;;5.78;4.35;;;;;;;22.62;35.36;99491.22;5053248;28;20028;-76
2022/09/14 07:48:57;;;;;;;3.85;3.55;;;;;;;22.86;35.01;99515.91;5052737;28;20020;-75
2022/09/14 07:51:24;;;;;;;3.70;3.10;;;;;;;22.96;35.12;99513.28;5052683;28;20039;-74
2022/09/14 07:53:50;;;;;;;4.85;3.53;;;;;;;22.61;35.02;99438.47;5049593;28;20020;-74
2022/09/14 07:56:16;;;;;;;4.10;3.70;;;;;;;22.88;34.84;99486.03;5041184;28;20020;-76
2022/09/14 07:58:42;;;;;;;4.50;4.10;;;;;;;22.89;34.58;99471.50;5058960;28;20025;-74
2022/09/14 08:01:10;;;;;;;3.75;2.45;;;;;;;23.23;34.29;99509.69;5054367;28;20040;-75
2022/09/14 08:03:41;;;;;;;4.80;2.90;;;;;;;23.31;34.08;99506.50;5052080;28;20531;-75
2022/09/14 08:06:19;;;;;;;10.32;9.23;;;;;;;23.13;34.27;99472.75;5035070;28;20044;-75
2022/09/14 08:08:46;;;;;;;8.95;8.15;;;;;;;23.53;34.44;99506.31;5047637;28;20028;-75
2022/09/14 08:11:12;;;;;;;4.88;4.43;;;;;;;23.68;34.08;99512.63;5051215;28;20025;-78
2022/09/14 08:13:40;;;;;;;6.90;5.60;;;;;;;23.75;33.68;99505.09;5053759;28;20555;-77
2022/09/14 08:16:07;;;;;;;6.65;5.50;;;;;;;23.52;33.56;99453.50;5050325;28;20025;-76
2022/09/14 08:18:34;;;;;;;12.90;8.45;;;;;;;23.44;33.66;99435.97;5052483;28;20484;-76
2022/09/14 08:21:12;;;;;;;6.85;6.18;;;;;;;23.98;33.38;99494.91;5051262;28;20017;-76
2022/09/14 08:23:38;;;;;;;5.90;4.68;;;;;;;24.12;33.68;99493.31;5039234;28;20083;-76
2022/09/14 08:26:13;;;;;;;4.47;2.95;;;;;;;24.26;33.25;99499.81;5052229;28;20021;-77
2022/09/14 08:28:39;;;;;;;3.55;3.15;;;;;;;24.39;32.83;99485.81;5051951;28;20512;-76
2022/09/14 08:31:26;;;;;;;7.00;4.93;;;;;;;24.55;32.89;99493.94;5052220;28;20036;-76
2022/09/14 08:33:56;;;;;;;4.53;3.60;;;;;;;24.37;32.61;99438.59;5050821;28;20123;-77
2022/09/14 08:36:23;;;;;;;3.65;3.35;;;;;;;24.75;32.59;99468.81;5052334;28;20033;-77
2022/09/14 08:38:49;;;;;;;4.90;3.65;;;;;;;24.40;32.40;99403.78;5046693;28;20040;-76
2022/09/14 08:41:24;;;;;;;3.70;3.17;;;;;;;25.22;31.99;99479.25;5046168;28;20502;-76
2022/09/14 08:43:49;;;;;;;6.15;3.70;;;;;;;25.15;31.82;99444.41;5032267;28;20025;-76
2022/09/14 08:46:33;;;;;;;10.60;9.55;;;;;;;25.54;32.00;99466.16;5030136;28;20159;-77
2022/09/14 08:49:00;;;;;;;4.35;3.65;;;;;;;25.67;31.74;99470.19;5031061;28;20025;-76
2022/09/14 08:51:26;;;;;;;4.57;2.95;;;;;;;25.45;31.39;99408.38;5042896;28;20040;-76
2022/09/14 08:53:55;;;;;;;3.92;2.50;;;;;;;25.95;31.24;99453.25;5050681;28;20090;-76
2022/09/14 08:56:25;;;;;;;2.50;2.30;;;;;;;26.09;30.85;99464.25;5059870;28;20108;-75
2022/09/14 08:59:09;;;;;;;4.13;3.72;;;;;;;26.02;30.25;99441.31;5052245;28;20028;-77
2022/09/14 09:01:46;;;;;;;4.43;3.90;;;;;;;26.21;29.94;99462.00;5051071;28;20076;-76
2022/09/14 09:04:14;;;;;;;2.13;2.03;;;;;;;26.29;29.79;99450.56;5049382;28;20104;-76
2022/09/14 09:06:57;;;;;;;4.50;4.10;;;;;;;26.49;29.70;99457.75;5051866;28;20025;-76
2022/09/14 09:09:35;;;;;;;4.07;3.50;;;;;;;26.26;29.16;99388.06;5049983;28;20028;-75
2022/09/14 09:12:01;;;;;;;2.83;2.20;;;;;;;26.41;29.38;99401.50;5031943;28;20091;-78
2022/09/14 09:14:32;;;;;;;2.95;2.28;;;;;;;26.87;29.19;99453.31;5049982;28;20555;-75
2022/09/14 09:17:02;;;;;;;3.40;2.42;;;;;;;26.65;28.89;99395.31;5049887;28;20028;-75
2022/09/14 09:19:46;;;;;;;2.78;1.70;;;;;;;27.10;28.65;99449.03;5049146;28;20033;-78
2022/09/14 09:22:16;;;;;;;2.33;2.00;;;;;;;26.84;28.68;99393.50;5050646;28;20452;-75
2022/09/14 09:24:47;;;;;;;2.72;2.38;;;;;;;27.13;28.52;99423.25;5049738;28;20036;-76
2022/09/14 09:27:14;;;;;;;4.10;2.05;;;;;;;27.21;28.29;99407.16;5048449;28;20090;-76
2022/09/14 09:29:40;;;;;;;2.10;2.00;;;;;;;27.49;28.50;99415.47;5048652;28;20543;-75
2022/09/14 09:32:24;;;;;;;2.20;2.00;;;;;;;27.75;28.07;99430.34;5041323;28;20061;-78
2022/09/14 09:34:50;;;;;;;2.83;2.40;;;;;;;27.90;28.01;99417.63;5031434;28;20033;-75
2022/09/14 09:37:20;;;;;;;3.72;2.03;;;;;;;28.10;27.20;99425.44;5048488;28;20118;-75
2022/09/14 09:39:45;;;;;;;3.30;2.22;;;;;;;28.12;27.24;99393.38;5051756;28;20477;-78
2022/09/14 09:42:13;;;;;;;7.38;6.65;;;;;;;27.96;26.79;99330.41;5050473;28;20075;-78
2022/09/14 09:44:52;;;;;;;2.90;2.70;;;;;;;28.20;26.72;99345.75;5051733;28;20033;-77
2022/09/14 09:47:25;;;;;;;2.63;2.42;;;;;;;28.44;26.83;99379.03;5048555;28;20025;-78
2022/09/14 09:49:58;;;;;;;3.00;2.13;;;;;;;28.51;26.67;99393.03;5035918;28;20036;-75
2022/09/14 09:52:23;;;;;;;2.47;2.13;;;;;;;28.63;26.23;99390.63;5030803;28;20555;-75
2022/09/14 09:54:51;;;;;;;4.50;4.10;;;;;;;28.76;26.28;99361.84;5049176;28;20103;-75
2022/09/14 09:57:35;;;;;;;5.07;3.85;;;;;;;29.06;25.57;99371.34;5049727;28;20025;-77
2022/09/14 10:00:08;;;;;;;1.90;1.80;;;;;;;28.89;25.78;99323.03;5053153;28;20027;-77
2022/09/14 10:02:34;;;;;;;8.70;7.82;;;;;;;29.16;25.52;99329.53;5055700;28;20048;-77
2022/09/14 10:05:21;;;;;;;3.42;3.13;;;;;;;29.76;25.23;99392.69;5036865;28;20112;-77
2022/09/14 10:07:57;;;;;;;1.80;1.70;;;;;;;29.78;24.98;99387.75;5035127;28;20603;-76
2022/09/14 10:10:38;;;;;;;4.70;3.92;;;;;;;30.03;24.76;99384.44;5036577;28;20049;-77
2022/09/14 10:13:14;;;;;;;3.70;2.67;;;;;;;30.07;25.44;99360.09;5035077;28;20026;-77
2022/09/14 10:15:41;;;;;;;2.70;2.50;;;;;;;30.26;24.50;99377.03;5042678;28;20032;-77
2022/09/14 10:18:10;;;;;;;3.70;2.92;;;;;;;30.32;24.79;99374.97;5052881;28;20523;-77
2022/09/14 10:20:44;;;;;;;3.35;2.00;;;;;;;30.42;24.60;99352.09;5050549;28;20029;-77
2022/09/14 10:23:19;;;;;;;2.35;1.73;;;;;;;30.68;23.52;99374.88;5051991;28;20021;-77
2022/09/14 10:25:49;;;;;;;2.70;2.50;;;;;;;30.81;23.50;99365.78;5054483;28;20031;-77
2022/09/14 10:28:27;;;;;;;3.05;1.20;;;;;;;30.56;22.77;99375.44;5055080;28;20123;-77
2022/09/14 10:31:04;;;;;;;4.38;3.50;;;;;;;30.58;23.15;99381.38;5037723;28;21026;-77
2022/09/14 10:33:29;;;;;;;1.92;1.80;;;;;;;30.77;23.31;99381.16;5037740;28;20103;-77
2022/09/14 10:36:16;;;;;;;1.67;1.58;;;;;;;30.89;23.11;99366.94;5053354;28;20047;-77
2022/09/14 10:38:51;;;;;;;3.40;3.10;;;;;;;30.78;22.87;99306.44;5040115;28;20482;-77
2022/09/14 10:41:21;;;;;;;1.85;1.75;;;;;;;31.44;22.68;99369.97;5035244;28;20084;-77
2022/09/14 10:43:52;;;;;;;2.38;1.83;;;;;;;31.69;22.11;99370.28;5055172;28;20025;-77
2022/09/14 10:46:29;;;;;;;4.00;3.10;;;;;;;31.71;21.99;99373.53;5054210;28;20493;-76
2022/09/14 10:49:30;;;;;;;2.85;2.20;;;;;;;31.80;21.83;99368.88;5054018;28;20486;-77
2022/09/14 10:52:02;;;;;;;3.28;2.97;;;;;;;31.86;21.68;99360.19;5055140;28;20031;-77
2022/09/14 10:55:06;;;;;;;3.42;2.30;;;;;;;32.00;20.68;99346.38;5050015;28;20029;-76
2022/09/14 10:58:06;;;;;;;4.07;1.70;;;;;;;32.16;21.32;99361.13;5032857;28;20500;-75
2022/09/14 11:00:43;;;;;;;3.35;3.10;;;;;;;31.78;21.38;99306.41;5054431;28;20044;-75
2022/09/14 11:03:18;;;;;;;1.80;1.70;;;;;;;32.18;21.19;99361.59;5064166;28;20021;-76
2022/09/14 11:05:53;;;;;;;3.47;2.85;;;;;;;32.20;21.71;99351.13;5068095;28;20021;-76
2022/09/14 11:08:30;;;;;;;2.83;1.98;;;;;;;32.29;21.25;99329.28;5054812;28;20468;-76
2022/09/14 11:11:03;;;;;;;2.25;1.75;;;;;;;32.55;20.37;99340.09;5052596;28;20464;-76
2022/09/14 11:13:57;;;;;;;3.45;2.72;;;;;;;32.44;20.53;99347.88;5046277;28;20025;-75
2022/09/14 11:16:49;;;;;;;1.92;1.70;;;;;;;32.19;20.90;99296.81;5051479;28;20025;-76
2022/09/14 11:19:59;;;;;;;2.90;1.25;;;;;;;32.41;20.65;99315.72;5050839;28;20021;-75
2022/09/14 11:22:45;;;;;;;3.22;1.65;;;;;;;32.60;20.53;99326.25;5052061;28;20028;-76
2022/09/14 11:25:20;;;;;;;2.58;1.45;;;;;;;32.74;20.77;99323.31;5053427;28;20045;-76
2022/09/14 11:27:55;;;;;;;2.00;1.67;;;;;;;32.43;20.72;99269.75;5052016;28;20032;-75
2022/09/14 11:30:24;;;;;;;1.27;1.17;;;;;;;32.68;20.61;99289.88;5057163;28;20025;-76
2022/09/14 11:33:07;;;;;;;1.33;1.17;;;;;;;32.97;20.29;99316.44;5069807;28;20021;-77
2022/09/14 11:35:42;;;;;;;2.50;2.30;;;;;;;32.99;20.17;99300.50;5053559;28;20485;-76
2022/09/14 11:38:18;;;;;;;2.67;1.50;;;;;;;33.17;20.23;99312.13;5053054;28;20154;-76
2022/09/14 11:41:08;;;;;;;1.55;1.40;;;;;;;33.29;19.78;99317.66;5052384;28;20041;-76
2022/09/14 11:43:41;;;;;;;2.00;1.52;;;;;;;33.05;20.25;99260.06;5046037;28;20020;-77
2022/09/14 11:46:32;;;;;;;3.83;1.55;;;;;;;33.53;19.27;99316.22;5050859;28;20501;-76
2022/09/14 11:49:17;;;;;;;2.05;1.50;;;;;;;33.54;19.59;99307.69;5053158;28;20145;-76
2022/09/14 11:51:50;;;;;;;3.22;1.50;;;;;;;33.20;19.48;99289.56;5050142;28;20048;-76